This is the latest recevied weather packets stored in our database for station/object G7GQA-4. If no packets are shown the sender has not sent any weather packets the latest 10 day(s).
| Time | Temp. | Humidity | Pressure | Rain* | Wind** | Luminosity | Snow |
|---|---|---|---|---|---|---|---|
| 1778082927 | 13.33° C | 47% | - | 0 mm | - | 134 W/m² | - |
| 1778082327 | 13.89° C | 45% | - | 0 mm | - | 248 W/m² | - |
| 1778081727 | 13.89° C | 44% | - | 0 mm | - | 534 W/m² | - |
| 1778081127 | 13.89° C | 44% | - | 0 mm | - | 209 W/m² | - |
| 1778080527 | 13.89° C | 44% | - | 0 mm | - | 638 W/m² | - |
| 1778079927 | 13.33° C | 48% | - | 0 mm | - | 349 W/m² | - |
| 1778079327 | 13.89° C | 47% | - | 0 mm | - | 260 W/m² | - |
| 1778078727 | 13.33° C | 48% | - | 0 mm | - | 474 W/m² | - |
| 1778078127 | 13.89° C | 48% | - | 0 mm | - | 338 W/m² | - |
| 1778077540 | 13.33° C | 46% | - | 0 mm | - | 369 W/m² | - |
| 1778076926 | 13.89° C | 46% | - | 0 mm | - | 726 W/m² | - |
| 1778076326 | 13.33° C | 49% | - | 0 mm | - | 356 W/m² | - |
| 1778075726 | 13.89° C | 47% | - | 0 mm | - | 475 W/m² | - |
| 1778075126 | 13.89° C | 48% | - | 0 mm | - | 513 W/m² | - |
| 1778074526 | 13.33° C | 49% | - | 0 mm | - | 376 W/m² | - |
| 1778073926 | 13.33° C | 50% | - | 0 mm | - | 688 W/m² | - |
| 1778073326 | 13.33° C | 51% | - | 0 mm | - | 625 W/m² | - |
| 1778072726 | 12.78° C | 53% | - | 0 mm | - | 591 W/m² | - |
| 1778072126 | 13.33° C | 53% | - | 0 mm | - | 515 W/m² | - |
| 1778071526 | 12.78° C | 54% | - | 0 mm | - | 489 W/m² | - |
| 1778070926 | 12.22° C | 55% | - | 0 mm | - | 589 W/m² | - |
| 1778070326 | 12.78° C | 55% | - | 0 mm | - | 608 W/m² | - |
| 1778069725 | 12.22° C | 55% | - | 0 mm | - | 541 W/m² | - |
| 1778069125 | 12.22° C | 56% | - | 0 mm | - | 485 W/m² | - |
| 1778068525 | 11.67° C | 57% | - | 0 mm | - | 551 W/m² | - |
* Rain latest hour (hover to see other rain measurements)
** Current wind speed in m/s (hover to see current wind gust speed)